Aeroporto :
LOGIN :

Iscrizione | Disclaimer

   EN    FR    IT 

 










Sommario :    VFR   VFR Marginale   IFR   IFR Intensivo   IFR Molto Intensivo
Visibilità : 
Base nubi : 
>= 8 km
>= 3000ft
5 / 8 km
1000 / 3000 ft
1500m / 5 km
500 / 1000 ft
800 / 1500m
200 / 500 ft
< 800m
< 200 ft
Simboli :   Temporali  Nebbia  Neve Forte  Precipitazioni Forti  Vento > 20 kt
SIGMETs :   Varie  Temporali  Ghiacco  Turbolenza  Onda orograficha  Ceneri Vulcaniche






- Altitudine del aeroporto : 33 ft
- Codice IATA : MHZ


EGUN - RAF Mildenhall

ULTIMO METAR :
  • 250356Z 24006KT 9999 OVC021 06/05 A3008 RMK SLP190 WND DATA ESTMD ALTSG ESTMD T00610052 .

METARs OBSOLETI :
  • 250256Z 22005KT 9999 OVC022 06/06 A3009 RMK SLP193 WND DATA ESTMD ALTSG ESTMD T00620056 $
  • 250156Z 21003KT 9999 OVC022 06/06 A3010 RMK SLP197 WND DATA ESTMD ALTSG ESTMD T00620062 .

TAF TAF EGUN
Valido dal 25 a 04 ore il 26 a 10 ore UTC


250359Z 2504/2610 22006KT 9999 OVC015 QNH3007INS
TEMPO 2504/2510 OVC020
BECMG 2509/2510 20012KT 9999 OVC020 QNH2999INS
TEMPO 2515/2520 OVC010
BECMG 2519/2520 18012KT 9999 OVC010 QNH2978INS TX07/2603Z TN06/2504Z



MetMap, La meteo Aeronautica in un colpo d'occhio ! - Copyright ORBIFLY Dicembre 2007 - Disclaimer

ORBIFLY MET'MAP TEAM :

Programmazione e sviluppo : Alexandra Zaïnal
Concezione : Baudouin d'Aumeries
Aiuto per la programmazione : Marc-Olivier Méhu
Supporto tecnico e logistico : Manuel Goepfert
Aiuto per la traduzione : Arnaldo La Scala

Contatto : metmap@orbifly.com




FONTI E CREDITI :

   NOAA